Time;durP1;ratioP1;P1;durP2;ratioP2;P2;SDS_P1;SDS_P2;PMS_P1;PMS_P2;Temp;Humidity;BMP_temperature;BMP_pressure;BME280_temperature;BME280_humidity;BME280_pressure;Samples;Min_cycle;Max_cycle;Signal;HPM_P1;HPM_P2
2021/12/12 00:00:54;;;;;;;2.40;2.30;;;3.60;99.90;;;;;;5048218;28;20466;-85
2021/12/12 00:03:35;;;;;;;0.80;0.70;;;3.60;99.90;;;;;;5031360;28;20835;-85
2021/12/12 00:06:05;;;;;;;0.80;0.77;;;3.60;99.90;;;;;;5035606;28;20420;-86
2021/12/12 00:08:30;;;;;;;2.33;2.13;;;3.60;99.90;;;;;;5046888;28;20433;-86
2021/12/12 00:11:01;;;;;;;2.23;2.03;;;3.60;99.90;;;;;;5049329;28;20433;-86
2021/12/12 00:13:32;;;;;;;1.63;1.53;;;3.60;99.90;;;;;;5048850;28;20191;-87
2021/12/12 00:15:57;;;;;;;1.30;1.20;;;3.60;99.90;;;;;;5021424;28;20464;-87
2021/12/12 00:18:23;;;;;;;1.77;1.67;;;3.60;99.90;;;;;;5047097;28;21220;-86
2021/12/12 00:20:49;;;;;;;0.90;0.90;;;3.60;99.90;;;;;;5036535;28;20198;-86
2021/12/12 00:23:16;;;;;;;1.03;0.93;;;3.60;99.90;;;;;;5039252;28;20438;-86
2021/12/12 00:25:45;;;;;;;2.30;1.70;;;3.60;99.90;;;;;;5031531;28;20491;-86
2021/12/12 00:28:12;;;;;;;1.33;1.23;;;3.50;99.90;;;;;;5048944;28;20441;-86
2021/12/12 00:30:39;;;;;;;2.33;2.13;;;3.50;99.90;;;;;;5047794;28;20449;-86
2021/12/12 00:33:05;;;;;;;2.20;2.10;;;3.50;99.90;;;;;;5049117;28;20456;-86
2021/12/12 00:35:31;;;;;;;1.33;1.27;;;3.50;99.90;;;;;;5044164;28;20437;-86
2021/12/12 00:38:10;;;;;;;3.33;3.03;;;3.40;99.90;;;;;;5025294;28;20988;-86
2021/12/12 00:40:43;;;;;;;2.07;1.93;;;3.40;99.90;;;;;;5042752;28;20502;-86
2021/12/12 00:43:28;;;;;;;1.47;1.37;;;3.40;99.90;;;;;;5049047;28;20433;-85
2021/12/12 00:45:56;;;;;;;1.17;1.07;;;3.30;99.90;;;;;;5048396;28;20437;-85
2021/12/12 00:48:23;;;;;;;0.90;0.90;;;3.30;99.90;;;;;;5048993;28;20436;-86
2021/12/12 00:50:50;;;;;;;1.20;1.10;;;3.30;99.90;;;;;;5046266;28;20499;-86
2021/12/12 00:53:16;;;;;;;1.87;1.77;;;3.30;99.90;;;;;;5029552;28;20791;-87
2021/12/12 00:55:44;;;;;;;3.33;3.13;;;3.30;99.90;;;;;;5044769;28;20491;-86
2021/12/12 00:58:12;;;;;;;1.37;1.27;;;3.30;99.90;;;;;;5030813;28;20455;-86
2021/12/12 01:00:43;;;;;;;2.13;1.93;;;3.30;99.90;;;;;;5044960;28;20981;-86
2021/12/12 01:03:10;;;;;;;0.80;0.60;;;3.30;99.90;;;;;;5040774;28;20475;-86
2021/12/12 01:05:38;;;;;;;1.63;1.53;;;3.20;99.90;;;;;;5024624;28;20488;-86
2021/12/12 01:08:06;;;;;;;1.57;1.47;;;3.20;99.90;;;;;;5043930;28;20441;-85
2021/12/12 01:10:38;;;;;;;2.53;2.33;;;3.30;99.90;;;;;;5049230;28;20432;-86
2021/12/12 01:13:05;;;;;;;0.80;0.80;;;3.20;99.90;;;;;;5046353;28;20433;-86
2021/12/12 01:15:39;;;;;;;1.70;1.60;;;3.20;99.90;;;;;;5047260;28;20990;-87
2021/12/12 01:18:09;;;;;;;1.10;1.00;;;3.10;99.90;;;;;;5042877;28;20477;-87
2021/12/12 01:20:53;;;;;;;3.03;2.40;;;3.10;99.90;;;;;;5040272;28;20503;-86
2021/12/12 01:23:34;;;;;;;2.87;2.63;;;3.10;99.90;;;;;;5037502;28;20952;-86
2021/12/12 01:26:01;;;;;;;1.17;1.07;;;3.10;99.90;;;;;;5041661;28;20449;-86
2021/12/12 01:28:30;;;;;;;4.20;4.00;;;3.10;99.90;;;;;;5016567;28;20442;-86
2021/12/12 01:30:59;;;;;;;4.10;3.77;;;3.10;99.90;;;;;;5047539;28;20959;-86
2021/12/12 01:33:33;;;;;;;0.80;0.80;;;3.10;99.90;;;;;;5034489;28;20961;-85
2021/12/12 01:36:24;;;;;;;6.57;1.83;;;3.10;99.90;;;;;;5045737;28;20999;-85
2021/12/12 01:41:26;;;;;;;0.80;0.80;;;3.10;99.90;;;;;;5048231;28;20473;-85
2021/12/12 01:43:55;;;;;;;3.63;2.70;;;3.10;99.90;;;;;;5041618;28;20559;-86
2021/12/12 01:46:26;;;;;;;1.50;1.40;;;3.00;99.90;;;;;;5045800;28;20429;-85
2021/12/12 01:48:58;;;;;;;1.10;1.00;;;3.00;99.90;;;;;;5052015;28;20457;-86
2021/12/12 01:51:24;;;;;;;0.80;0.80;;;3.00;99.90;;;;;;5031585;28;20463;-86
2021/12/12 01:53:52;;;;;;;0.80;0.80;;;3.00;99.90;;;;;;5022656;28;20452;-86
2021/12/12 01:56:24;;;;;;;1.07;1.07;;;3.00;99.90;;;;;;5046440;28;20478;-86
2021/12/12 01:58:55;;;;;;;2.40;2.30;;;3.00;99.90;;;;;;5047570;28;20433;-86
2021/12/12 02:01:37;;;;;;;2.70;2.23;;;2.90;99.90;;;;;;5050010;28;20473;-86
2021/12/12 02:04:12;;;;;;;0.87;0.87;;;2.90;99.90;;;;;;5032145;28;20971;-86
2021/12/12 02:06:38;;;;;;;1.37;1.30;;;2.90;99.90;;;;;;5039374;28;20455;-85
2021/12/12 02:09:07;;;;;;;2.03;1.83;;;2.90;99.90;;;;;;5038862;28;20459;-86
2021/12/12 02:11:34;;;;;;;1.67;1.57;;;2.80;99.90;;;;;;5032737;28;20449;-86
2021/12/12 02:14:10;;;;;;;0.80;0.80;;;2.80;99.90;;;;;;5051047;28;20747;-85
2021/12/12 02:16:43;;;;;;;0.90;0.90;;;2.80;99.90;;;;;;5050717;28;20498;-87
2021/12/12 02:19:09;;;;;;;1.67;1.57;;;2.70;99.90;;;;;;5047947;28;20520;-88
2021/12/12 02:21:55;;;;;;;0.80;0.70;;;2.70;99.90;;;;;;5050861;28;20472;-88
2021/12/12 02:35:08;;;;;;;1.90;1.73;;;2.70;99.90;;;;;;5043864;28;20483;-87
2021/12/12 02:35:42;;;;;;;0.80;0.80;;;2.60;99.90;;;;;;5051346;28;20452;-89
2021/12/12 02:38:10;;;;;;;2.37;2.03;;;2.60;99.90;;;;;;5048702;28;20445;-88
2021/12/12 02:40:58;;;;;;;1.57;1.47;;;2.60;99.90;;;;;;5032143;28;22235;-88
2021/12/12 02:43:26;;;;;;;1.30;1.20;;;2.60;99.90;;;;;;5045327;28;20972;-88
2021/12/12 02:45:56;;;;;;;1.50;1.40;;;2.50;99.90;;;;;;5032722;28;20444;-89
2021/12/12 02:48:28;;;;;;;1.23;1.13;;;2.50;99.90;;;;;;5033009;28;20449;-88
2021/12/12 02:50:55;;;;;;;0.80;0.70;;;2.50;99.90;;;;;;5048416;28;20445;-88
2021/12/12 02:53:34;;;;;;;1.73;1.03;;;2.50;99.90;;;;;;5048981;28;20433;-88
2021/12/12 02:56:09;;;;;;;0.80;0.77;;;2.50;99.90;;;;;;5041336;28;20479;-88
2021/12/12 02:58:35;;;;;;;1.53;1.43;;;2.50;99.90;;;;;;5048056;28;20444;-88
2021/12/12 03:01:07;;;;;;;0.87;0.80;;;2.60;99.90;;;;;;5049694;28;20484;-88
2021/12/12 03:03:37;;;;;;;0.90;0.80;;;2.50;99.90;;;;;;5046564;28;20430;-88
2021/12/12 03:06:07;;;;;;;1.63;1.13;;;2.50;99.90;;;;;;5048140;28;20413;-88
2021/12/12 03:08:33;;;;;;;0.80;0.80;;;2.50;99.90;;;;;;5049428;28;20452;-88
2021/12/12 03:10:59;;;;;;;1.10;1.00;;;2.60;99.90;;;;;;5040582;28;20448;-89
2021/12/12 03:13:26;;;;;;;1.00;0.70;;;2.50;99.90;;;;;;5030243;28;20441;-88
2021/12/12 03:15:53;;;;;;;1.20;1.10;;;2.50;99.90;;;;;;5044143;28;20227;-87
2021/12/12 03:18:31;;;;;;;1.50;1.37;;;2.60;99.90;;;;;;5041413;28;20986;-88
2021/12/12 03:21:00;;;;;;;1.30;1.20;;;2.60;99.90;;;;;;5050131;28;20435;-89
2021/12/12 03:23:34;;;;;;;0.93;0.90;;;2.50;99.90;;;;;;5048352;28;20426;-88
2021/12/12 03:26:08;;;;;;;2.27;2.13;;;2.60;99.90;;;;;;5041790;28;20555;-89
2021/12/12 03:28:36;;;;;;;1.27;1.00;;;2.60;99.90;;;;;;5029468;28;20437;-88
2021/12/12 03:31:07;;;;;;;1.00;0.90;;;2.60;99.90;;;;;;5049419;28;20519;-88
2021/12/12 03:33:33;;;;;;;1.00;0.90;;;2.60;99.90;;;;;;5044299;28;20488;-87
2021/12/12 03:36:03;;;;;;;2.60;1.70;;;2.60;99.90;;;;;;5049791;28;20469;-87
2021/12/12 03:38:31;;;;;;;9.43;2.40;;;2.60;99.90;;;;;;5046163;28;20460;-88
2021/12/12 03:40:59;;;;;;;1.10;1.00;;;2.60;99.90;;;;;;5044154;28;20532;-87
2021/12/12 03:43:27;;;;;;;0.90;0.90;;;2.60;99.90;;;;;;5045189;28;20440;-88
2021/12/12 03:45:53;;;;;;;0.80;0.70;;;2.60;99.90;;;;;;5028782;28;20449;-88
2021/12/12 03:48:27;;;;;;;0.80;0.80;;;2.60;99.90;;;;;;5027947;28;20449;-88
2021/12/12 03:50:58;;;;;;;1.00;0.90;;;2.60;99.90;;;;;;5048427;28;20477;-88
2021/12/12 03:53:25;;;;;;;1.10;1.00;;;2.60;99.90;;;;;;5019874;28;20517;-87
2021/12/12 03:55:51;;;;;;;0.90;0.80;;;2.60;99.90;;;;;;5013119;28;20438;-88
2021/12/12 03:58:17;;;;;;;0.80;0.70;;;2.60;99.90;;;;;;5042045;28;20469;-87
2021/12/12 04:00:51;;;;;;;1.17;1.07;;;2.60;99.90;;;;;;5029708;28;20516;-87
2021/12/12 04:03:18;;;;;;;0.97;0.90;;;2.60;99.90;;;;;;5025345;28;20269;-88
2021/12/12 04:05:51;;;;;;;0.80;0.80;;;2.70;99.90;;;;;;5048502;28;20855;-87
2021/12/12 04:08:17;;;;;;;0.80;0.80;;;2.70;99.90;;;;;;5030213;28;20864;-88
2021/12/12 04:10:44;;;;;;;1.40;1.30;;;2.70;99.90;;;;;;5045613;28;20464;-88
2021/12/12 04:13:10;;;;;;;1.97;1.87;;;2.70;99.90;;;;;;5046096;28;20448;-88
2021/12/12 04:15:36;;;;;;;0.80;0.73;;;2.70;99.90;;;;;;5047650;28;20452;-87
2021/12/12 04:18:04;;;;;;;0.90;0.90;;;2.70;99.90;;;;;;5048836;28;20445;-88
2021/12/12 04:20:37;;;;;;;1.23;1.13;;;2.70;99.90;;;;;;5048464;28;20440;-87
2021/12/12 04:23:13;;;;;;;1.00;0.90;;;2.70;99.90;;;;;;5048877;28;20524;-88
2021/12/12 04:25:38;;;;;;;1.20;1.10;;;2.70;99.90;;;;;;5047646;28;20431;-86
2021/12/12 04:28:04;;;;;;;0.80;0.70;;;2.70;99.90;;;;;;5043687;28;20436;-87
2021/12/12 04:30:30;;;;;;;0.80;0.80;;;2.70;99.90;;;;;;5045161;28;20194;-88
2021/12/12 04:32:55;;;;;;;0.80;0.80;;;2.70;99.90;;;;;;5035827;28;20186;-88
2021/12/12 04:35:25;;;;;;;0.80;0.80;;;2.70;99.90;;;;;;5030845;28;20213;-88
2021/12/12 04:37:52;;;;;;;29.50;3.43;;;2.70;99.90;;;;;;5047752;28;20222;-88
2021/12/12 04:40:22;;;;;;;0.80;0.70;;;2.70;99.90;;;;;;5043060;28;20466;-88
2021/12/12 04:42:51;;;;;;;1.10;1.00;;;2.70;99.90;;;;;;5043702;28;20433;-88
2021/12/12 04:45:31;;;;;;;0.80;0.70;;;2.80;99.90;;;;;;5041069;28;20438;-88
2021/12/12 04:50:55;;;;;;;1.93;1.83;;;2.70;99.90;;;;;;5047807;28;20443;-87
2021/12/12 04:53:47;;;;;;;1.00;0.90;;;2.70;99.90;;;;;;5048391;28;20950;-86
2021/12/12 04:56:22;;;;;;;1.53;1.43;;;2.80;99.90;;;;;;5046794;28;20487;-87
2021/12/12 04:59:19;;;;;;;2.90;2.70;;;2.80;99.90;;;;;;5045041;28;20916;-88
2021/12/12 05:01:59;;;;;;;0.80;0.80;;;2.80;99.90;;;;;;5044582;28;20495;-88
2021/12/12 05:04:33;;;;;;;0.80;0.80;;;2.80;99.90;;;;;;5048650;28;20443;-88
2021/12/12 05:07:09;;;;;;;1.37;1.30;;;2.80;99.90;;;;;;5052814;28;20421;-88
2021/12/12 05:09:49;;;;;;;1.63;1.53;;;2.80;99.90;;;;;;5046346;28;20432;-86
2021/12/12 05:12:22;;;;;;;5.73;3.67;;;2.80;99.90;;;;;;5051522;28;20424;-88
2021/12/12 05:14:58;;;;;;;2.40;2.30;;;2.80;99.90;;;;;;5049341;28;20445;-87
2021/12/12 05:17:33;;;;;;;0.80;0.70;;;2.80;99.90;;;;;;5052380;28;20488;-87
2021/12/12 05:20:04;;;;;;;0.80;0.70;;;2.90;99.90;;;;;;5049901;28;20471;-88
2021/12/12 05:22:34;;;;;;;3.80;1.27;;;2.90;99.90;;;;;;5052045;28;20445;-87
2021/12/12 05:25:04;;;;;;;2.90;2.20;;;2.90;99.90;;;;;;5050744;28;20460;-88
2021/12/12 05:27:33;;;;;;;1.00;0.90;;;2.90;99.90;;;;;;5048980;28;20437;-88
2021/12/12 05:30:04;;;;;;;0.90;0.90;;;2.90;99.90;;;;;;5050771;28;20511;-87
2021/12/12 05:32:31;;;;;;;1.50;1.40;;;2.90;99.90;;;;;;5046971;28;20452;-87
2021/12/12 05:34:57;;;;;;;1.57;1.47;;;2.90;99.90;;;;;;5049115;28;20448;-88
2021/12/12 05:37:23;;;;;;;3.93;1.63;;;2.90;99.90;;;;;;5051296;28;20485;-88
2021/12/12 05:39:51;;;;;;;1.10;1.00;;;2.90;99.90;;;;;;5048613;28;20441;-88
2021/12/12 05:42:19;;;;;;;0.80;0.80;;;2.90;99.90;;;;;;5048989;28;20864;-89
2021/12/12 05:44:46;;;;;;;1.20;1.00;;;2.90;99.90;;;;;;5048971;28;20461;-93
2021/12/12 05:47:12;;;;;;;2.13;1.93;;;2.90;99.90;;;;;;5032385;28;20524;-92
2021/12/12 05:49:40;;;;;;;1.17;1.10;;;2.90;99.90;;;;;;5056596;28;20528;-95
2021/12/12 05:52:13;;;;;;;1.00;0.90;;;2.90;99.90;;;;;;5042286;28;20655;-91
2021/12/12 05:54:39;;;;;;;1.67;1.57;;;2.90;99.90;;;;;;5042890;28;20438;-91
2021/12/12 05:57:04;;;;;;;8.23;4.00;;;2.90;99.90;;;;;;5041350;28;20488;-92
2021/12/12 05:59:30;;;;;;;0.80;0.80;;;2.90;99.90;;;;;;5047190;28;20553;-93
2021/12/12 06:01:58;;;;;;;1.43;1.37;;;2.90;99.90;;;;;;5037876;28;20595;-93
2021/12/12 06:04:24;;;;;;;2.37;2.20;;;2.90;99.90;;;;;;5041586;28;20532;-93
2021/12/12 06:06:50;;;;;;;1.10;1.00;;;2.90;99.90;;;;;;5028039;28;20473;-95
2021/12/12 06:09:17;;;;;;;0.87;0.83;;;2.90;99.90;;;;;;5047020;28;20429;-93
2021/12/12 06:11:46;;;;;;;0.80;0.80;;;2.90;99.90;;;;;;5052497;28;20476;-93
2021/12/12 06:14:12;;;;;;;1.30;1.20;;;2.90;99.90;;;;;;5034452;28;20426;-93
2021/12/12 06:16:38;;;;;;;0.80;0.80;;;3.00;99.90;;;;;;5048788;28;20530;-91
2021/12/12 06:19:12;;;;;;;0.90;0.90;;;2.90;99.90;;;;;;5025257;28;21090;-91
2021/12/12 06:21:38;;;;;;;1.00;0.90;;;3.00;99.90;;;;;;5031147;28;20861;-91
2021/12/12 06:24:04;;;;;;;1.37;1.27;;;3.00;99.90;;;;;;5044148;28;20463;-91
2021/12/12 06:26:30;;;;;;;1.27;1.17;;;3.00;99.90;;;;;;5053614;28;20449;-92
2021/12/12 06:28:56;;;;;;;1.10;1.00;;;3.00;99.90;;;;;;5047164;28;20449;-93
2021/12/12 06:31:22;;;;;;;1.00;0.90;;;3.00;99.90;;;;;;5027485;28;20191;-92
2021/12/12 06:33:48;;;;;;;0.87;0.87;;;3.00;99.90;;;;;;5048574;28;20282;-92
2021/12/12 06:36:15;;;;;;;1.10;1.00;;;3.00;99.90;;;;;;5054251;28;20687;-92
2021/12/12 06:38:45;;;;;;;0.80;0.80;;;3.00;99.90;;;;;;5028522;28;20218;-92
2021/12/12 06:41:11;;;;;;;2.33;2.23;;;3.00;99.90;;;;;;5022798;28;20433;-92
2021/12/12 06:43:37;;;;;;;1.30;1.20;;;3.00;99.90;;;;;;5052424;28;20436;-93
2021/12/12 06:46:06;;;;;;;10.30;2.83;;;3.00;99.90;;;;;;5051435;28;20329;-92
2021/12/12 06:48:32;;;;;;;2.50;1.23;;;3.00;99.90;;;;;;5048004;28;20476;-92
2021/12/12 06:51:01;;;;;;;1.10;1.00;;;3.00;99.90;;;;;;5049638;28;20797;-93
2021/12/12 06:53:29;;;;;;;1.63;1.53;;;3.00;99.90;;;;;;5052632;28;20429;-93
2021/12/12 06:55:56;;;;;;;1.50;1.40;;;3.10;99.90;;;;;;5047218;28;20448;-92
2021/12/12 06:58:24;;;;;;;1.90;1.73;;;3.00;99.90;;;;;;5047922;28;20480;-92
2021/12/12 07:00:54;;;;;;;0.80;0.73;;;3.10;99.90;;;;;;5046711;28;20995;-91
2021/12/12 07:03:20;;;;;;;0.80;0.70;;;3.00;99.90;;;;;;5047998;28;20442;-93
2021/12/12 07:05:46;;;;;;;1.40;1.30;;;3.10;99.90;;;;;;5041355;28;20635;-92
2021/12/12 07:08:14;;;;;;;0.90;0.90;;;3.10;99.90;;;;;;5049144;28;20476;-92
2021/12/12 07:10:40;;;;;;;2.60;2.50;;;3.10;99.90;;;;;;5038390;28;20445;-92
2021/12/12 07:13:07;;;;;;;0.93;0.90;;;3.10;99.90;;;;;;5051669;28;20455;-93
2021/12/12 07:15:38;;;;;;;4.00;1.50;;;3.10;99.90;;;;;;5050676;28;20441;-92
2021/12/12 07:18:12;;;;;;;0.80;0.70;;;3.10;99.90;;;;;;5035311;28;20499;-91
2021/12/12 07:20:38;;;;;;;0.87;0.87;;;3.10;99.90;;;;;;5044647;28;20869;-92
2021/12/12 07:23:09;;;;;;;1.00;0.90;;;3.10;99.90;;;;;;5049925;28;20523;-92
2021/12/12 07:25:36;;;;;;;0.80;0.80;;;3.10;99.90;;;;;;5030566;28;20465;-90
2021/12/12 07:28:04;;;;;;;5.90;2.50;;;3.20;99.90;;;;;;5038649;28;20450;-92
2021/12/12 07:30:30;;;;;;;3.63;1.53;;;3.20;99.90;;;;;;5040254;28;20451;-93
2021/12/12 07:32:57;;;;;;;0.80;0.80;;;3.20;99.90;;;;;;5046021;28;20449;-92
2021/12/12 07:35:23;;;;;;;3.53;3.23;;;3.20;99.90;;;;;;5051520;28;20449;-94
2021/12/12 07:37:49;;;;;;;0.90;0.90;;;3.30;99.90;;;;;;5051276;28;20483;-94
2021/12/12 07:40:16;;;;;;;1.20;1.10;;;3.30;99.90;;;;;;5053674;28;20441;-94
2021/12/12 07:42:45;;;;;;;1.47;1.37;;;3.30;99.90;;;;;;5050563;28;20471;-95
2021/12/12 07:45:11;;;;;;;1.37;1.27;;;3.40;99.90;;;;;;5056064;28;20429;-96
2021/12/12 07:47:37;;;;;;;1.13;1.07;;;3.40;99.90;;;;;;5051861;28;20436;-95
2021/12/12 07:50:06;;;;;;;0.80;0.77;;;3.40;99.90;;;;;;5052561;28;20182;-95
2021/12/12 07:52:32;;;;;;;1.20;1.10;;;3.40;99.90;;;;;;5043682;28;20527;-94
2021/12/12 07:54:58;;;;;;;1.37;1.30;;;3.40;99.90;;;;;;5050798;28;20809;-93
2021/12/12 07:57:26;;;;;;;0.80;0.80;;;3.40;99.90;;;;;;5046295;28;20226;-93
2021/12/12 07:59:53;;;;;;;0.80;0.80;;;3.40;99.90;;;;;;5042439;28;20460;-91
2021/12/12 08:02:20;;;;;;;0.80;0.80;;;3.40;99.90;;;;;;5043634;28;20939;-91
2021/12/12 08:04:46;;;;;;;2.43;2.33;;;3.40;99.90;;;;;;5031389;28;20437;-91
2021/12/12 08:07:15;;;;;;;1.20;1.00;;;3.40;99.90;;;;;;5042343;28;21101;-90
2021/12/12 08:09:42;;;;;;;0.80;0.70;;;3.40;99.90;;;;;;5040556;28;20186;-91
2021/12/12 08:12:15;;;;;;;0.80;0.80;;;3.40;99.90;;;;;;5044777;28;20456;-91
2021/12/12 08:14:42;;;;;;;0.80;0.70;;;3.50;99.90;;;;;;5048032;28;20434;-91
2021/12/12 08:17:09;;;;;;;0.80;0.80;;;3.50;99.90;;;;;;5035282;28;20485;-91
2021/12/12 08:19:35;;;;;;;1.90;1.63;;;3.50;99.90;;;;;;5047104;28;20445;-91
2021/12/12 08:22:04;;;;;;;1.77;1.67;;;3.50;99.90;;;;;;5030730;28;20445;-91
2021/12/12 08:24:32;;;;;;;2.50;2.30;;;3.50;99.90;;;;;;5048443;28;20936;-91
2021/12/12 08:26:59;;;;;;;0.80;0.80;;;3.50;99.90;;;;;;5045813;28;20499;-91
2021/12/12 08:29:26;;;;;;;1.20;1.10;;;3.50;99.90;;;;;;5032976;28;20459;-91
2021/12/12 08:31:52;;;;;;;1.20;1.13;;;3.50;99.90;;;;;;5043746;28;20960;-91
2021/12/12 08:34:18;;;;;;;0.90;0.90;;;3.60;99.90;;;;;;5047413;28;20428;-91
2021/12/12 08:36:50;;;;;;;0.87;0.87;;;3.60;99.90;;;;;;5054388;28;20472;-91
2021/12/12 08:39:18;;;;;;;1.20;1.10;;;3.60;99.90;;;;;;5034881;28;20432;-93
2021/12/12 08:41:47;;;;;;;3.20;1.17;;;3.60;99.90;;;;;;5053062;28;21313;-91
2021/12/12 08:44:14;;;;;;;0.80;0.70;;;3.60;99.90;;;;;;5045046;28;20436;-90
2021/12/12 08:46:44;;;;;;;1.20;1.10;;;3.60;99.90;;;;;;5027883;28;20457;-91
2021/12/12 08:49:12;;;;;;;3.00;2.80;;;3.60;99.90;;;;;;5041876;28;20454;-92
2021/12/12 08:51:43;;;;;;;0.80;0.70;;;3.60;99.90;;;;;;5047632;28;20446;-93
2021/12/12 08:54:15;;;;;;;1.13;1.03;;;3.70;99.90;;;;;;5048514;28;20460;-91
2021/12/12 08:56:48;;;;;;;0.80;0.80;;;3.70;99.90;;;;;;5052765;28;20476;-92
2021/12/12 08:59:36;;;;;;;1.63;1.53;;;3.70;99.90;;;;;;5029063;28;20441;-90
2021/12/12 09:02:08;;;;;;;0.90;0.83;;;3.70;99.90;;;;;;5048249;28;20496;-92
2021/12/12 09:04:46;;;;;;;1.47;1.37;;;3.80;99.90;;;;;;5050712;28;20503;-94
2021/12/12 09:07:35;;;;;;;0.90;0.80;;;3.80;99.90;;;;;;5049896;28;20448;-93
2021/12/12 09:10:26;;;;;;;3.20;1.80;;;3.80;99.90;;;;;;5044845;28;20455;-92
2021/12/12 09:13:02;;;;;;;0.80;0.80;;;3.80;99.90;;;;;;5033977;28;20444;-95
2021/12/12 09:15:42;;;;;;;0.90;0.90;;;3.90;99.90;;;;;;5045129;28;20488;-93
2021/12/12 09:18:13;;;;;;;0.80;0.70;;;3.90;99.90;;;;;;5050634;28;20876;-89
2021/12/12 09:20:49;;;;;;;2.07;1.73;;;3.90;99.90;;;;;;5027958;28;20440;-87
2021/12/12 09:23:31;;;;;;;1.33;1.23;;;4.00;99.90;;;;;;5043837;28;20436;-88
2021/12/12 09:26:07;;;;;;;0.90;0.80;;;4.00;99.90;;;;;;5049866;28;20454;-89
2021/12/12 09:29:01;;;;;;;1.70;1.60;;;4.00;99.90;;;;;;5027950;28;20448;-89
2021/12/12 09:31:38;;;;;;;0.80;0.60;;;4.00;99.90;;;;;;5037884;28;20476;-88
2021/12/12 09:34:22;;;;;;;0.80;0.70;;;4.00;99.90;;;;;;5028805;28;20441;-88
2021/12/12 09:37:11;;;;;;;0.80;0.80;;;4.00;99.90;;;;;;5040630;28;20469;-88
2021/12/12 09:39:49;;;;;;;1.00;0.90;;;4.10;99.90;;;;;;5045445;28;20453;-88
2021/12/12 09:42:46;;;;;;;2.90;2.60;;;4.10;99.90;;;;;;5050207;28;20463;-88
2021/12/12 09:45:42;;;;;;;0.80;0.70;;;4.10;99.90;;;;;;5045294;28;20601;-89
2021/12/12 09:51:14;;;;;;;0.80;0.70;;;4.10;99.90;;;;;;5008605;28;20464;-88
2021/12/12 09:51:30;;;;;;;0.97;0.87;;;4.10;99.90;;;;;;5047873;28;21229;-89
2021/12/12 09:54:25;;;;;;;0.90;0.90;;;4.10;99.90;;;;;;5033039;28;21094;-88
2021/12/12 09:57:04;;;;;;;1.00;0.90;;;4.10;99.90;;;;;;5047452;28;20534;-88
2021/12/12 10:00:05;;;;;;;0.80;0.80;;;4.10;99.90;;;;;;5050215;28;20441;-88
2021/12/12 10:02:33;;;;;;;0.80;0.77;;;4.20;99.90;;;;;;5030367;28;20787;-88
2021/12/12 10:05:14;;;;;;;4.93;1.20;;;4.10;99.90;;;;;;5032431;28;20445;-88
2021/12/12 10:08:08;;;;;;;0.80;0.70;;;4.20;99.90;;;;;;5047349;28;20452;-87
2021/12/12 10:10:37;;;;;;;3.17;2.57;;;4.20;99.90;;;;;;5029920;28;20507;-88
2021/12/12 10:13:16;;;;;;;0.87;0.80;;;4.20;99.90;;;;;;5048543;28;20457;-88
2021/12/12 10:15:47;;;;;;;1.30;1.20;;;4.20;99.90;;;;;;5049230;28;20465;-89
2021/12/12 10:18:23;;;;;;;0.80;0.63;;;4.20;99.90;;;;;;5049346;28;20480;-88
2021/12/12 10:21:01;;;;;;;1.03;0.93;;;4.30;99.90;;;;;;5047221;28;20472;-90
2021/12/12 10:23:45;;;;;;;0.80;0.70;;;4.30;99.90;;;;;;5029473;28;20448;-88
2021/12/12 10:26:28;;;;;;;0.80;0.80;;;4.30;99.90;;;;;;5019176;28;20956;-87
2021/12/12 10:29:06;;;;;;;0.80;0.80;;;4.30;99.90;;;;;;5041882;28;20442;-88
2021/12/12 10:31:42;;;;;;;0.80;0.60;;;4.30;99.90;;;;;;5046822;28;20591;-86
2021/12/12 10:34:32;;;;;;;1.00;0.90;;;4.30;99.90;;;;;;5028170;28;20441;-87
2021/12/12 10:37:02;;;;;;;0.87;0.70;;;4.30;99.90;;;;;;5031217;28;20513;-85
2021/12/12 10:39:44;;;;;;;0.80;0.80;;;4.30;99.90;;;;;;5047295;28;21024;-85
2021/12/12 10:42:17;;;;;;;0.97;0.90;;;4.30;99.90;;;;;;5048358;28;20449;-85
2021/12/12 10:44:46;;;;;;;0.80;0.80;;;4.30;99.90;;;;;;5048564;28;20453;-87
2021/12/12 10:47:16;;;;;;;0.80;0.70;;;4.30;99.90;;;;;;5048055;28;20445;-88
2021/12/12 10:50:12;;;;;;;1.63;0.97;;;4.30;99.90;;;;;;5031399;28;20988;-87
2021/12/12 10:53:15;;;;;;;4.03;2.70;;;4.40;99.90;;;;;;5044564;28;21069;-87
2021/12/12 10:55:43;;;;;;;0.80;0.70;;;4.30;99.90;;;;;;5030854;28;20440;-88
2021/12/12 10:58:20;;;;;;;0.80;0.80;;;4.30;99.90;;;;;;5048537;28;20639;-86
2021/12/12 11:00:54;;;;;;;0.80;0.80;;;4.40;99.90;;;;;;5043279;28;20563;-84
2021/12/12 11:03:33;;;;;;;0.80;0.73;;;4.40;99.90;;;;;;5031962;28;20842;-85
2021/12/12 11:06:15;;;;;;;0.80;0.70;;;4.40;99.90;;;;;;5047444;28;20447;-85
2021/12/12 11:08:50;;;;;;;1.00;0.90;;;4.40;99.90;;;;;;5039935;28;20526;-84
2021/12/12 11:11:20;;;;;;;4.03;1.70;;;4.40;99.90;;;;;;5043807;28;20444;-84
2021/12/12 11:14:21;;;;;;;0.80;0.70;;;4.40;99.90;;;;;;5042944;28;20536;-85
2021/12/12 11:16:54;;;;;;;5.83;1.83;;;4.40;99.90;;;;;;4997291;28;20482;-87
2021/12/12 11:19:27;;;;;;;0.80;0.80;;;4.40;99.90;;;;;;5027938;28;20542;-85
2021/12/12 11:22:05;;;;;;;0.80;0.70;;;4.40;99.90;;;;;;5045355;28;20495;-86
2021/12/12 11:24:47;;;;;;;0.80;0.70;;;4.40;99.90;;;;;;5052700;28;20445;-87
2021/12/12 11:27:19;;;;;;;1.90;1.80;;;4.40;99.90;;;;;;5050736;28;20432;-86
2021/12/12 11:29:56;;;;;;;0.80;0.70;;;4.50;99.90;;;;;;5047135;28;20456;-85
2021/12/12 11:32:26;;;;;;;0.80;0.80;;;4.40;99.90;;;;;;5026741;28;20449;-85
2021/12/12 11:34:54;;;;;;;1.73;1.63;;;4.50;99.90;;;;;;5041918;28;20541;-88
2021/12/12 11:37:47;;;;;;;0.80;0.70;;;4.50;99.90;;;;;;5047633;28;20643;-88
2021/12/12 11:40:30;;;;;;;0.80;0.70;;;4.50;99.90;;;;;;5046610;28;20540;-88
2021/12/12 11:43:24;;;;;;;0.80;0.70;;;4.50;99.90;;;;;;5041144;28;20449;-85
2021/12/12 11:45:57;;;;;;;1.70;1.60;;;4.50;99.90;;;;;;5030224;28;20735;-85
2021/12/12 11:48:47;;;;;;;0.80;0.80;;;4.50;99.90;;;;;;5039263;28;20437;-85
2021/12/12 11:51:15;;;;;;;0.80;0.70;;;4.50;99.90;;;;;;5044503;28;21996;-85
2021/12/12 11:54:07;;;;;;;0.80;0.80;;;4.60;99.90;;;;;;5016595;28;20524;-85
2021/12/12 11:56:49;;;;;;;0.80;0.60;;;4.60;99.90;;;;;;5025232;28;20461;-88
2021/12/12 11:59:35;;;;;;;0.80;0.70;;;4.60;99.90;;;;;;5049940;28;20480;-86
2021/12/12 12:02:23;;;;;;;0.80;0.73;;;4.60;99.90;;;;;;5024991;28;20999;-86
2021/12/12 12:05:06;;;;;;;0.87;0.77;;;4.60;99.90;;;;;;5024165;28;20469;-86
2021/12/12 12:07:44;;;;;;;0.80;0.70;;;4.70;99.90;;;;;;5019149;28;21298;-86
2021/12/12 12:10:47;;;;;;;0.80;0.70;;;4.70;99.90;;;;;;5007282;28;20488;-86
2021/12/12 12:13:43;;;;;;;1.10;1.00;;;4.70;99.90;;;;;;5009354;28;20919;-85
2021/12/12 12:16:18;;;;;;;0.80;0.70;;;4.70;99.90;;;;;;5031986;28;20430;-88
2021/12/12 12:18:55;;;;;;;0.80;0.70;;;4.70;99.90;;;;;;5028562;28;21250;-87
2021/12/12 12:21:27;;;;;;;0.83;0.83;;;4.80;99.90;;;;;;5026289;28;20993;-88
2021/12/12 12:24:13;;;;;;;1.10;1.00;;;4.80;99.90;;;;;;5027519;28;20944;-87
2021/12/12 12:27:02;;;;;;;0.80;0.70;;;4.80;99.90;;;;;;5002464;28;20454;-87
2021/12/12 12:29:27;;;;;;;2.20;1.53;;;4.80;99.90;;;;;;5029684;28;20430;-87
2021/12/12 12:32:31;;;;;;;1.33;1.23;;;4.80;99.90;;;;;;5030058;28;20434;-88
2021/12/12 12:35:35;;;;;;;1.07;0.97;;;4.80;99.90;;;;;;5029418;28;20195;-87
2021/12/12 12:38:31;;;;;;;1.23;1.10;;;4.80;99.90;;;;;;5023863;28;20979;-87
2021/12/12 12:41:15;;;;;;;2.70;0.90;;;4.80;99.90;;;;;;5008318;28;20473;-87
2021/12/12 12:44:18;;;;;;;0.80;0.80;;;4.80;99.90;;;;;;5025859;28;20429;-88
2021/12/12 12:47:05;;;;;;;0.80;0.70;;;4.80;99.90;;;;;;5025772;28;20434;-88
2021/12/12 12:49:55;;;;;;;0.97;0.87;;;4.80;99.90;;;;;;5026721;28;20441;-88
2021/12/12 12:52:58;;;;;;;1.50;1.20;;;4.90;99.90;;;;;;5029020;28;20930;-87
2021/12/12 12:55:42;;;;;;;0.80;0.70;;;4.80;99.90;;;;;;5028684;28;21074;-88
2021/12/12 12:58:29;;;;;;;0.80;0.70;;;4.90;99.90;;;;;;5011079;28;20501;-87
2021/12/12 13:01:12;;;;;;;0.80;0.73;;;4.90;99.90;;;;;;5023106;28;20900;-86
2021/12/12 13:04:13;;;;;;;0.80;0.70;;;4.90;99.90;;;;;;5017838;28;20457;-86
2021/12/12 13:06:58;;;;;;;1.47;1.37;;;4.90;99.90;;;;;;5027201;28;20538;-88
2021/12/12 13:09:45;;;;;;;0.80;0.80;;;4.90;99.90;;;;;;5010789;28;20442;-87
2021/12/12 13:12:33;;;;;;;0.80;0.77;;;5.00;99.90;;;;;;5005676;28;20437;-88
2021/12/12 13:15:20;;;;;;;0.80;0.70;;;5.00;99.90;;;;;;5024079;28;20433;-87
2021/12/12 13:18:06;;;;;;;0.80;0.80;;;5.00;99.90;;;;;;5027633;28;20518;-88
2021/12/12 13:20:42;;;;;;;0.80;0.70;;;5.00;99.90;;;;;;5009422;28;20855;-89
2021/12/12 13:23:36;;;;;;;0.80;0.80;;;5.10;99.90;;;;;;5009630;28;20445;-87
2021/12/12 13:26:09;;;;;;;0.80;0.70;;;5.10;99.90;;;;;;5008900;28;20491;-88
2021/12/12 13:28:47;;;;;;;0.80;0.60;;;5.10;99.90;;;;;;5015495;28;20478;-87
2021/12/12 13:31:27;;;;;;;0.80;0.70;;;5.10;99.90;;;;;;5023825;28;20446;-87
2021/12/12 13:34:17;;;;;;;0.80;0.80;;;5.10;99.90;;;;;;5045275;28;20437;-87
2021/12/12 13:36:57;;;;;;;0.80;0.70;;;5.10;99.90;;;;;;5029017;28;20474;-86
2021/12/12 13:39:41;;;;;;;1.73;1.37;;;5.10;99.90;;;;;;5014805;28;20505;-86
2021/12/12 13:42:37;;;;;;;0.80;0.70;;;5.20;99.90;;;;;;5028741;28;20453;-86
2021/12/12 13:45:12;;;;;;;0.80;0.70;;;5.20;99.90;;;;;;5030839;28;20507;-86
2021/12/12 13:47:53;;;;;;;0.80;0.70;;;5.20;99.90;;;;;;5032988;28;20447;-85